Time;durP1;ratioP1;P1;durP2;ratioP2;P2;SDS_P1;SDS_P2;PMS_P1;PMS_P2;Temp;Humidity;BMP_temperature;BMP_pressure;BME280_temperature;BME280_humidity;BME280_pressure;Samples;Min_cycle;Max_cycle;Signal;HPM_P1;HPM_P2
2023/12/10 00:02:03;;;;;;;11.05;4.82;;;;;;;6.18;100.00;95791.66;5030543;28;20029;-67
2023/12/10 00:04:28;;;;;;;43.97;32.65;;;;;;;6.14;100.00;95825.06;5019574;28;20689;-67
2023/12/10 00:06:54;;;;;;;21.27;14.82;;;;;;;6.15;100.00;95834.56;5017225;28;20014;-67
2023/12/10 00:09:19;;;;;;;35.50;31.85;;;;;;;6.22;100.00;95814.06;5021740;28;20076;-66
2023/12/10 00:11:44;;;;;;;23.63;21.27;;;;;;;6.19;100.00;95799.41;5032449;28;20474;-67
2023/12/10 00:14:10;;;;;;;6.28;2.63;;;;;;;6.35;100.00;95816.59;5032107;28;20410;-66
2023/12/10 00:16:35;;;;;;;4.28;2.30;;;;;;;6.79;100.00;95853.47;5025518;28;20053;-66
2023/12/10 00:19:01;;;;;;;4.85;3.00;;;;;;;6.92;100.00;95871.72;5025166;28;20069;-66
2023/12/10 00:21:26;;;;;;;4.03;2.60;;;;;;;6.92;100.00;95875.19;5025180;28;20807;-67
2023/12/10 00:23:51;;;;;;;12.52;4.45;;;;;;;6.96;100.00;95896.72;5020152;28;20041;-66
2023/12/10 00:26:17;;;;;;;11.25;6.38;;;;;;;6.77;100.00;95937.34;5020927;28;20081;-66
2023/12/10 00:28:43;;;;;;;8.15;4.35;;;;;;;7.03;100.00;95958.97;5020162;28;20014;-65
2023/12/10 00:31:09;;;;;;;10.60;4.20;;;;;;;7.16;100.00;96007.81;5036346;28;20029;-65
2023/12/10 00:33:35;;;;;;;8.52;3.88;;;;;;;7.15;100.00;96048.88;5022232;28;20021;-67
2023/12/10 00:36:00;;;;;;;8.07;4.25;;;;;;;6.98;100.00;96067.59;5036292;28;20095;-67
2023/12/10 00:38:25;;;;;;;3.90;2.10;;;;;;;7.10;100.00;96077.19;5022110;28;20057;-66
2023/12/10 00:40:51;;;;;;;4.28;3.28;;;;;;;7.22;100.00;96092.97;5017008;28;20018;-66
2023/12/10 00:43:16;;;;;;;7.22;2.97;;;;;;;7.21;100.00;96101.75;5017445;28;20114;-66
2023/12/10 00:45:42;;;;;;;6.20;2.30;;;;;;;7.27;100.00;96107.38;5024446;28;20116;-64
2023/12/10 00:48:08;;;;;;;5.22;2.25;;;;;;;7.73;100.00;96116.28;5022262;28;20372;-66
2023/12/10 00:50:34;;;;;;;8.70;2.78;;;;;;;8.02;100.00;96071.28;5024356;28;20056;-66
2023/12/10 00:53:02;;;;;;;6.45;2.25;;;;;;;8.20;100.00;96052.50;5032195;28;20049;-66
2023/12/10 00:55:27;;;;;;;6.28;2.15;;;;;;;8.30;100.00;96045.59;5028059;28;20021;-66
2023/12/10 00:57:53;;;;;;;5.47;2.67;;;;;;;8.30;100.00;96060.47;5034578;28;20051;-66
2023/12/10 01:00:19;;;;;;;5.70;2.90;;;;;;;8.05;100.00;96057.13;5035439;28;20025;-66
2023/12/10 01:02:45;;;;;;;6.20;2.83;;;;;;;7.71;100.00;96086.72;5035425;28;20022;-66
2023/12/10 01:05:11;;;;;;;5.32;3.10;;;;;;;7.40;100.00;96127.44;5035896;28;20021;-66
2023/12/10 01:07:36;;;;;;;7.55;2.85;;;;;;;7.07;100.00;96176.03;5033419;28;20021;-66
2023/12/10 01:10:05;;;;;;;6.53;2.80;;;;;;;6.94;100.00;96197.00;5034748;28;20083;-66
2023/12/10 01:12:33;;;;;;;6.20;2.67;;;;;;;6.83;100.00;96210.84;5017875;28;20022;-66
2023/12/10 01:14:58;;;;;;;14.38;7.28;;;;;;;6.67;100.00;96196.22;5027885;28;20030;-66
2023/12/10 01:17:23;;;;;;;17.23;11.23;;;;;;;6.57;100.00;96224.78;5033181;28;20398;-66
2023/12/10 01:19:49;;;;;;;13.38;6.38;;;;;;;6.64;100.00;96206.06;5027530;28;20030;-66
2023/12/10 01:22:15;;;;;;;7.78;3.72;;;;;;;6.62;100.00;96190.44;5035216;28;20465;-66
2023/12/10 01:24:40;;;;;;;8.68;3.88;;;;;;;6.49;100.00;96193.06;5028939;28;20402;-66
2023/12/10 01:27:06;;;;;;;13.27;3.65;;;;;;;6.33;100.00;96187.22;5034749;28;20049;-67
2023/12/10 01:29:31;;;;;;;7.63;3.53;;;;;;;6.25;100.00;96191.16;5022815;28;20479;-67
2023/12/10 01:31:56;;;;;;;23.40;14.07;;;;;;;6.22;100.00;96207.06;5015937;28;20109;-67
2023/12/10 01:34:22;;;;;;;23.20;12.57;;;;;;;6.23;100.00;96194.84;5022318;28;20026;-66
2023/12/10 01:36:48;;;;;;;7.25;4.13;;;;;;;6.29;100.00;96202.28;5019588;28;20026;-66
2023/12/10 01:39:15;;;;;;;4.00;2.90;;;;;;;6.25;100.00;96211.25;5021258;28;20025;-66
2023/12/10 01:41:40;;;;;;;8.75;4.70;;;;;;;6.14;100.00;96214.59;5021209;28;20041;-66
2023/12/10 01:44:06;;;;;;;8.07;3.63;;;;;;;6.13;100.00;96226.00;5027933;28;20033;-67
2023/12/10 01:46:31;;;;;;;7.00;4.10;;;;;;;6.06;100.00;96235.16;5028676;28;20025;-67
2023/12/10 01:48:58;;;;;;;10.85;4.55;;;;;;;6.05;100.00;96236.09;5032491;28;20049;-66
2023/12/10 01:51:24;;;;;;;22.70;11.20;;;;;;;6.11;100.00;96226.06;5034206;28;20406;-66
2023/12/10 01:53:50;;;;;;;12.98;4.28;;;;;;;6.16;100.00;96249.31;5029496;28;20181;-67
2023/12/10 01:56:16;;;;;;;11.13;3.05;;;;;;;6.29;100.00;96251.94;5035000;28;20049;-67
2023/12/10 01:58:42;;;;;;;8.23;3.72;;;;;;;6.16;100.00;96249.31;5028398;28;20026;-67
2023/12/10 02:01:07;;;;;;;6.75;4.07;;;;;;;6.16;100.00;96249.31;5028336;28;20081;-67
2023/12/10 02:03:33;;;;;;;8.05;3.20;;;;;;;6.08;100.00;96254.19;5028165;28;20028;-66
2023/12/10 02:05:59;;;;;;;7.65;3.00;;;;;;;6.00;100.00;96255.50;5015713;28;20445;-67
2023/12/10 02:08:25;;;;;;;9.85;3.08;;;;;;;5.93;100.00;96248.16;5022686;28;20486;-67
2023/12/10 02:10:50;;;;;;;8.68;3.08;;;;;;;5.93;100.00;96258.59;5021504;28;20030;-66
2023/12/10 02:13:17;;;;;;;10.30;3.30;;;;;;;5.93;100.00;96249.00;5034909;28;20051;-66
2023/12/10 02:15:43;;;;;;;7.80;3.50;;;;;;;5.96;100.00;96245.34;5022423;28;20034;-67
2023/12/10 02:18:08;;;;;;;6.38;3.80;;;;;;;5.96;100.00;96251.41;5034269;28;20036;-66
2023/12/10 02:20:33;;;;;;;12.13;5.18;;;;;;;5.97;100.00;96252.28;5021566;28;20121;-66
2023/12/10 02:23:07;;;;;;;12.85;4.20;;;;;;;6.27;100.00;96251.22;5026797;28;20048;-66
2023/12/10 02:25:35;;;;;;;13.30;3.30;;;;;;;6.18;100.00;96252.66;5029331;28;20021;-66
2023/12/10 02:28:02;;;;;;;12.23;3.85;;;;;;;6.10;100.00;96245.31;5025990;28;20033;-66
2023/12/10 02:30:28;;;;;;;8.30;3.20;;;;;;;6.06;100.00;96246.47;5026382;28;20022;-66
2023/12/10 02:32:53;;;;;;;7.55;2.97;;;;;;;5.92;100.00;96244.72;5026727;28;20037;-66
2023/12/10 02:35:19;;;;;;;6.53;3.40;;;;;;;5.82;100.00;96241.00;5030513;28;20368;-65
2023/12/10 02:37:44;;;;;;;13.93;4.75;;;;;;;5.73;100.00;96238.06;5024770;28;20096;-66
2023/12/10 02:40:10;;;;;;;13.00;5.53;;;;;;;5.69;100.00;96235.72;5033344;28;20534;-68
2023/12/10 02:42:36;;;;;;;14.38;7.45;;;;;;;5.68;100.00;96231.44;5034714;28;20033;-66
2023/12/10 02:45:02;;;;;;;17.10;7.57;;;;;;;5.95;100.00;96230.59;5032752;28;20021;-66
2023/12/10 02:47:27;;;;;;;8.60;4.38;;;;;;;5.83;100.00;96234.84;5032846;28;20036;-66
2023/12/10 02:49:52;;;;;;;11.82;5.00;;;;;;;5.82;100.00;96241.00;5020160;28;20026;-64
2023/12/10 02:52:22;;;;;;;11.80;6.68;;;;;;;5.72;100.00;96233.78;5016408;28;20507;-66
2023/12/10 02:54:48;;;;;;;8.50;3.80;;;;;;;5.69;100.00;96231.38;5017848;28;20037;-67
2023/12/10 02:57:13;;;;;;;6.97;2.80;;;;;;;5.64;100.00;96224.75;5026620;28;20032;-66
2023/12/10 02:59:38;;;;;;;11.30;4.95;;;;;;;5.58;100.00;96221.59;5027826;28;20025;-66
2023/12/10 03:02:04;;;;;;;11.73;6.28;;;;;;;5.53;100.00;96215.00;5022677;28;20099;-67
2023/12/10 03:04:29;;;;;;;16.92;7.90;;;;;;;5.45;100.00;96208.50;5033202;28;20041;-67
2023/12/10 03:06:54;;;;;;;15.38;7.57;;;;;;;5.42;100.00;96206.06;5015799;28;20107;-66
2023/12/10 03:09:20;;;;;;;12.50;5.18;;;;;;;5.38;100.00;96203.75;5024358;28;20060;-67
2023/12/10 03:11:45;;;;;;;22.23;13.05;;;;;;;5.33;100.00;96197.97;5034724;28;20025;-66
2023/12/10 03:14:11;;;;;;;14.10;7.35;;;;;;;5.32;100.00;96197.13;5026759;28;20025;-66
2023/12/10 03:16:36;;;;;;;11.00;5.25;;;;;;;5.26;100.00;96194.91;5027519;28;20382;-66
2023/12/10 03:19:01;;;;;;;9.30;4.22;;;;;;;5.23;100.00;96195.13;5028666;28;20029;-66
2023/12/10 03:21:27;;;;;;;9.15;4.07;;;;;;;5.16;100.00;96171.97;5034584;28;20037;-66
2023/12/10 03:23:52;;;;;;;8.60;3.10;;;;;;;5.13;100.00;96166.13;5033413;28;20452;-66
2023/12/10 03:26:17;;;;;;;10.10;4.90;;;;;;;5.07;100.00;96161.28;5034547;28;20030;-66
2023/12/10 03:28:43;;;;;;;15.80;11.63;;;;;;;5.00;100.00;96163.47;5034694;28;20025;-66
2023/12/10 03:31:08;;;;;;;11.65;6.32;;;;;;;4.88;100.00;96160.66;5034927;28;20090;-66
2023/12/10 03:33:34;;;;;;;9.40;5.85;;;;;;;4.87;100.00;96155.56;5022377;28;20034;-66
2023/12/10 03:36:00;;;;;;;5.07;3.15;;;;;;;4.89;100.00;96153.69;5027147;28;20029;-66
2023/12/10 03:38:25;;;;;;;7.32;3.05;;;;;;;4.92;100.00;96139.59;5024807;28;20060;-66
2023/12/10 03:40:51;;;;;;;8.48;4.50;;;;;;;4.90;100.00;96126.66;5036930;28;20039;-66
2023/12/10 03:43:16;;;;;;;11.00;5.30;;;;;;;4.91;100.00;96122.28;5021760;28;20095;-66
2023/12/10 03:45:42;;;;;;;10.20;5.15;;;;;;;4.90;100.00;96112.78;5024046;28;20041;-66
2023/12/10 03:48:07;;;;;;;7.82;4.15;;;;;;;4.85;100.00;96119.13;5031068;28;20113;-67
2023/12/10 03:50:32;;;;;;;4.80;3.17;;;;;;;4.81;100.00;96127.22;5022556;28;20030;-66
2023/12/10 03:52:58;;;;;;;6.47;3.85;;;;;;;4.76;100.00;96122.31;5017187;28;20057;-66
2023/12/10 03:55:23;;;;;;;13.07;8.38;;;;;;;4.78;100.00;96156.97;5017500;28;20044;-66
2023/12/10 03:57:50;;;;;;;7.45;4.72;;;;;;;4.81;100.00;96155.91;5017944;28;20136;-66
2023/12/10 04:00:16;;;;;;;8.85;4.13;;;;;;;4.88;100.00;96165.88;5017829;28;20029;-66
2023/12/10 04:02:42;;;;;;;5.90;4.20;;;;;;;4.85;100.00;96170.44;5017850;28;20045;-66
2023/12/10 04:05:11;;;;;;;10.77;4.53;;;;;;;4.83;100.00;96169.72;5018682;28;20033;-66
2023/12/10 04:07:37;;;;;;;8.02;4.70;;;;;;;4.82;100.00;96181.06;5030259;28;20029;-66
2023/12/10 04:10:03;;;;;;;12.15;3.55;;;;;;;4.87;100.00;96173.81;5024744;28;20026;-66
2023/12/10 04:12:30;;;;;;;9.50;4.95;;;;;;;4.87;100.00;96171.22;5030593;28;20490;-66
2023/12/10 04:14:56;;;;;;;13.73;3.90;;;;;;;4.91;100.00;96162.25;5027678;28;20022;-66
2023/12/10 04:17:21;;;;;;;13.23;3.15;;;;;;;4.95;100.00;96153.31;5017580;28;20120;-66
2023/12/10 04:19:47;;;;;;;5.65;3.60;;;;;;;4.95;100.00;96144.63;5029887;28;20040;-66
2023/12/10 04:22:12;;;;;;;14.63;5.68;;;;;;;4.99;100.00;96154.78;5024831;28;20078;-66
2023/12/10 04:24:37;;;;;;;12.48;6.43;;;;;;;4.88;100.00;96157.25;5035807;28;20040;-66
2023/12/10 04:27:03;;;;;;;6.93;3.30;;;;;;;4.86;100.00;96157.31;5036610;28;20022;-66
2023/12/10 04:29:28;;;;;;;8.07;3.30;;;;;;;4.87;100.00;96151.16;5022786;28;20056;-66
2023/12/10 04:31:54;;;;;;;12.10;7.65;;;;;;;4.87;100.00;96145.94;5024058;28;20051;-66
2023/12/10 04:34:20;;;;;;;12.65;7.75;;;;;;;4.88;100.00;96142.41;5023481;28;20060;-66
2023/12/10 04:36:45;;;;;;;11.23;5.20;;;;;;;4.90;100.00;96138.88;5030092;28;20026;-66
2023/12/10 04:39:11;;;;;;;10.10;4.82;;;;;;;4.88;100.00;96137.19;5022679;28;20410;-66
2023/12/10 04:41:36;;;;;;;9.73;5.45;;;;;;;4.81;100.00;96125.47;5035678;28;20049;-66
2023/12/10 04:44:01;;;;;;;7.57;3.47;;;;;;;4.86;100.00;96130.38;5023086;28;20061;-66
2023/12/10 04:46:27;;;;;;;8.27;3.95;;;;;;;4.81;100.00;96120.25;5018524;28;20024;-66
2023/12/10 04:48:52;;;;;;;8.48;3.58;;;;;;;4.77;100.00;96117.91;5017208;28;20037;-66
2023/12/10 04:51:18;;;;;;;9.63;7.45;;;;;;;4.70;100.00;96114.84;5023476;28;20082;-66
2023/12/10 04:53:43;;;;;;;13.63;8.50;;;;;;;4.70;100.00;96115.69;5022595;28;20046;-66
2023/12/10 04:56:09;;;;;;;11.30;5.57;;;;;;;4.69;100.00;96126.22;5035560;28;20080;-66
2023/12/10 04:58:35;;;;;;;7.60;3.58;;;;;;;4.66;100.00;96137.69;5017059;28;20553;-66
2023/12/10 05:01:02;;;;;;;7.50;3.03;;;;;;;4.59;100.00;96132.00;5029330;28;20639;-66
2023/12/10 05:03:27;;;;;;;9.98;3.33;;;;;;;4.55;100.00;96133.13;5035368;28;20021;-66
2023/12/10 05:05:53;;;;;;;5.20;2.92;;;;;;;4.56;100.00;96126.13;5036232;28;20049;-66
2023/12/10 05:08:18;;;;;;;14.40;7.47;;;;;;;4.56;100.00;96123.53;5035577;28;20029;-66
2023/12/10 05:10:43;;;;;;;9.77;7.00;;;;;;;4.55;100.00;96125.31;5023129;28;20124;-66
2023/12/10 05:13:09;;;;;;;9.65;6.30;;;;;;;4.55;100.00;96135.75;5030187;28;20475;-66
2023/12/10 05:15:34;;;;;;;8.50;4.55;;;;;;;4.52;100.00;96135.91;5026499;28;20025;-66
2023/12/10 05:18:03;;;;;;;10.45;3.83;;;;;;;4.53;100.00;96134.16;5029050;28;20092;-66
2023/12/10 05:20:29;;;;;;;12.55;6.15;;;;;;;4.51;100.00;96144.66;5028976;28;20025;-66
2023/12/10 05:22:54;;;;;;;11.52;5.95;;;;;;;4.49;100.00;96153.53;5031344;28;20052;-66
2023/12/10 05:25:19;;;;;;;6.90;3.67;;;;;;;4.61;100.00;96164.97;5022393;28;20031;-66
2023/12/10 05:27:45;;;;;;;5.85;2.90;;;;;;;4.44;100.00;96172.91;5023152;28;20030;-66
2023/12/10 05:30:11;;;;;;;8.40;3.35;;;;;;;4.40;100.00;96167.94;5015780;28;20490;-66
2023/12/10 05:32:37;;;;;;;10.20;4.03;;;;;;;4.31;100.00;96158.91;5016226;28;20026;-66
2023/12/10 05:35:03;;;;;;;10.75;4.25;;;;;;;4.25;100.00;96165.31;5021501;28;20092;-66
2023/12/10 05:37:28;;;;;;;6.93;4.50;;;;;;;4.26;100.00;96166.19;5022442;28;20029;-66
2023/12/10 05:39:54;;;;;;;11.07;6.22;;;;;;;4.25;100.00;96160.09;5027258;28;20025;-66
2023/12/10 05:42:19;;;;;;;14.98;5.68;;;;;;;4.24;100.00;96171.47;5022377;28;20029;-66
2023/12/10 05:44:44;;;;;;;9.60;5.60;;;;;;;4.24;100.00;96179.28;5028482;28;20018;-66
2023/12/10 05:47:10;;;;;;;8.52;5.88;;;;;;;4.24;100.00;96184.50;5028606;28;20029;-66
2023/12/10 05:49:35;;;;;;;14.07;8.30;;;;;;;4.23;100.00;96193.25;5015416;28;20022;-66
2023/12/10 05:52:01;;;;;;;7.80;5.63;;;;;;;4.19;100.00;96199.56;5016259;28;20026;-67
2023/12/10 05:54:26;;;;;;;13.73;5.20;;;;;;;4.15;100.00;96203.28;5029033;28;20120;-66
2023/12/10 05:56:51;;;;;;;6.82;4.47;;;;;;;4.19;100.00;96199.56;5029916;28;20025;-66
2023/12/10 05:59:17;;;;;;;8.60;4.60;;;;;;;4.17;100.00;96201.44;5026528;28;20033;-66
2023/12/10 06:01:42;;;;;;;9.27;4.70;;;;;;;4.15;100.00;96191.09;5026122;28;20096;-66
2023/12/10 06:04:07;;;;;;;8.02;5.03;;;;;;;4.14;100.00;96189.41;5025071;28;20112;-66
2023/12/10 06:06:33;;;;;;;6.80;4.28;;;;;;;4.13;100.00;96192.94;5030899;28;20036;-66
2023/12/10 06:08:58;;;;;;;7.72;4.90;;;;;;;4.13;100.00;96182.53;5024873;28;20414;-66
2023/12/10 06:11:24;;;;;;;9.48;4.63;;;;;;;4.09;100.00;96188.84;5025080;28;20027;-66
2023/12/10 06:13:49;;;;;;;18.27;14.52;;;;;;;4.07;100.00;96200.28;5022439;28;20029;-66
2023/12/10 06:16:15;;;;;;;26.52;21.67;;;;;;;4.08;100.00;96205.41;5030244;28;20033;-66
2023/12/10 06:18:40;;;;;;;27.17;23.55;;;;;;;4.11;100.00;96207.00;5026325;28;20037;-66
2023/12/10 06:21:06;;;;;;;24.05;16.92;;;;;;;4.13;100.00;96212.97;5028719;28;20036;-66
2023/12/10 06:23:31;;;;;;;16.00;10.68;;;;;;;4.07;100.00;96224.59;5028262;28;20066;-65
2023/12/10 06:25:56;;;;;;;11.77;7.78;;;;;;;4.01;100.00;96217.94;5025628;28;20037;-66
2023/12/10 06:28:22;;;;;;;13.55;7.32;;;;;;;4.08;100.00;96221.06;5030199;28;20121;-66
2023/12/10 06:30:47;;;;;;;13.88;6.15;;;;;;;4.04;100.00;96223.91;5015798;28;20022;-66
2023/12/10 06:33:13;;;;;;;19.55;10.35;;;;;;;4.19;100.00;96228.25;5032092;28;20529;-66
2023/12/10 06:35:38;;;;;;;15.60;9.18;;;;;;;4.20;100.00;96224.72;5027188;28;20118;-66
2023/12/10 06:38:03;;;;;;;27.33;24.50;;;;;;;4.23;100.00;96228.91;5034716;28;20025;-66
2023/12/10 06:40:29;;;;;;;25.08;22.30;;;;;;;4.17;100.00;96232.72;5034783;28;20038;-66
2023/12/10 06:42:54;;;;;;;21.15;17.77;;;;;;;4.13;100.00;96232.03;5018601;28;20136;-66
2023/12/10 06:45:20;;;;;;;19.30;14.10;;;;;;;4.11;100.00;96220.03;5015250;28;20091;-66
2023/12/10 06:47:45;;;;;;;20.38;15.38;;;;;;;4.11;100.00;96217.44;5017825;28;20024;-66
2023/12/10 06:50:11;;;;;;;33.45;27.52;;;;;;;4.10;100.00;96223.59;5034600;28;20032;-66
2023/12/10 06:52:36;;;;;;;70.30;44.92;;;;;;;4.06;100.00;96211.63;5033791;28;20049;-66
2023/12/10 06:55:02;;;;;;;61.92;35.15;;;;;;;4.09;100.00;96214.06;5027434;28;20029;-65
2023/12/10 06:57:27;;;;;;;52.47;32.72;;;;;;;4.09;100.00;96214.91;5034669;28;20030;-65
2023/12/10 06:59:53;;;;;;;37.25;21.98;;;;;;;4.07;100.00;96215.91;5034125;28;20057;-66
2023/12/10 07:02:18;;;;;;;29.60;18.65;;;;;;;4.09;100.00;96214.91;5032626;28;20495;-66
2023/12/10 07:04:44;;;;;;;34.78;23.00;;;;;;;4.07;100.00;96216.78;5018338;28;20489;-66
2023/12/10 07:07:09;;;;;;;35.97;25.60;;;;;;;4.01;100.00;96219.75;5021981;28;20113;-66
2023/12/10 07:09:35;;;;;;;33.70;24.98;;;;;;;3.93;100.00;96217.56;5019098;28;20025;-66
2023/12/10 07:12:02;;;;;;;35.70;23.88;;;;;;;3.88;100.00;96214.41;5023342;28;20776;-66
2023/12/10 07:14:27;;;;;;;35.42;24.77;;;;;;;3.84;100.00;96213.72;5022824;28;20044;-66
2023/12/10 07:16:52;;;;;;;25.45;17.63;;;;;;;3.83;100.00;96226.81;5027519;28;20050;-66
2023/12/10 07:19:18;;;;;;;40.58;33.83;;;;;;;3.86;100.00;96240.53;5025041;28;20030;-66
2023/12/10 07:21:43;;;;;;;58.33;52.72;;;;;;;3.87;100.00;96238.75;5030855;28;20040;-66
2023/12/10 07:24:08;;;;;;;33.92;30.40;;;;;;;3.84;100.00;96238.91;5028254;28;20029;-66
2023/12/10 07:26:34;;;;;;;20.15;16.02;;;;;;;3.79;100.00;96238.34;5036919;28;20482;-66
2023/12/10 07:28:59;;;;;;;16.40;13.90;;;;;;;3.73;100.00;96242.97;5028764;28;20029;-66
2023/12/10 07:31:25;;;;;;;18.10;11.70;;;;;;;3.70;100.00;96242.31;5036364;28;20025;-66
2023/12/10 07:33:51;;;;;;;20.38;12.40;;;;;;;3.71;100.00;96249.19;5035295;28;20026;-66
2023/12/10 07:36:17;;;;;;;18.10;10.00;;;;;;;3.73;100.00;96249.94;5031204;28;20040;-65
2023/12/10 07:38:42;;;;;;;14.25;9.93;;;;;;;3.76;100.00;96254.16;5042736;28;20061;-66
2023/12/10 07:41:08;;;;;;;15.20;9.60;;;;;;;3.79;100.00;96253.97;5037356;28;20037;-66
2023/12/10 07:43:33;;;;;;;15.80;8.77;;;;;;;3.86;100.00;96266.56;5029160;28;20038;-66
2023/12/10 07:45:59;;;;;;;25.05;10.55;;;;;;;3.82;100.00;96261.59;5024135;28;20487;-66
2023/12/10 07:48:24;;;;;;;20.13;11.40;;;;;;;3.75;100.00;96263.72;5044543;28;20033;-66
2023/12/10 07:50:49;;;;;;;15.52;10.27;;;;;;;3.69;100.00;96262.31;5037276;28;20033;-66
2023/12/10 07:53:17;;;;;;;17.15;11.05;;;;;;;3.67;100.00;96263.31;5022204;28;20080;-66
2023/12/10 07:55:43;;;;;;;28.98;23.30;;;;;;;3.65;100.00;96263.41;5030273;28;20090;-66
2023/12/10 07:58:09;;;;;;;24.92;18.75;;;;;;;3.63;100.00;96262.63;5021995;28;20040;-66
2023/12/10 08:00:34;;;;;;;18.95;16.92;;;;;;;3.60;100.00;96268.00;5026630;28;20025;-66
2023/12/10 08:03:00;;;;;;;21.50;17.33;;;;;;;3.50;100.00;96261.66;5022001;28;20041;-66
2023/12/10 08:05:25;;;;;;;21.50;16.48;;;;;;;3.43;100.00;96272.41;5026754;28;20033;-65
2023/12/10 08:07:51;;;;;;;21.08;17.05;;;;;;;3.42;100.00;96275.91;5049214;28;20033;-66
2023/12/10 08:10:18;;;;;;;23.65;20.30;;;;;;;3.53;100.00;96272.72;5030522;28;20077;-66
2023/12/10 08:12:43;;;;;;;21.55;19.40;;;;;;;3.51;100.00;96278.94;5028451;28;20033;-66
2023/12/10 08:15:09;;;;;;;30.33;19.15;;;;;;;3.61;100.00;96280.09;5022238;28;20036;-66
2023/12/10 08:17:34;;;;;;;23.83;20.15;;;;;;;3.71;100.00;96278.69;5015775;28;20513;-65
2023/12/10 08:20:00;;;;;;;30.65;22.75;;;;;;;3.77;100.00;96284.47;5026015;28;20120;-66
2023/12/10 08:22:25;;;;;;;30.85;21.65;;;;;;;3.81;100.00;96291.19;5010469;28;20497;-66
2023/12/10 08:24:50;;;;;;;25.95;18.75;;;;;;;3.83;100.00;96281.53;5028722;28;20038;-66
2023/12/10 08:27:16;;;;;;;27.30;19.45;;;;;;;3.85;100.00;96279.66;5030396;28;20033;-66
2023/12/10 08:29:41;;;;;;;24.45;21.70;;;;;;;3.82;100.00;96277.25;5033394;28;20095;-66
2023/12/10 08:32:07;;;;;;;19.88;14.68;;;;;;;3.82;100.00;96287.66;5034447;28;20040;-65
2023/12/10 08:34:32;;;;;;;21.20;13.07;;;;;;;3.82;100.00;96278.09;5023539;28;20516;-65
2023/12/10 08:36:57;;;;;;;19.13;11.63;;;;;;;3.79;100.00;96286.09;5020117;28;20095;-64
2023/12/10 08:39:23;;;;;;;17.83;10.80;;;;;;;3.75;100.00;96289.75;5034637;28;20490;-63
2023/12/10 08:41:49;;;;;;;14.85;10.38;;;;;;;3.71;100.00;96290.84;5032618;28;20052;-63
2023/12/10 08:44:15;;;;;;;16.60;11.32;;;;;;;3.64;100.00;96299.94;5023581;28;20532;-64
2023/12/10 08:46:40;;;;;;;16.73;10.68;;;;;;;3.57;100.00;96304.63;5023159;28;20026;-67
2023/12/10 08:49:06;;;;;;;21.67;15.15;;;;;;;3.45;100.00;96300.94;5028175;28;20026;-66
2023/12/10 08:51:31;;;;;;;24.60;17.67;;;;;;;3.41;100.00;96302.84;5031699;28;20942;-67
2023/12/10 08:53:59;;;;;;;31.65;25.27;;;;;;;3.41;100.00;96300.25;5024387;28;20050;-67
2023/12/10 08:56:25;;;;;;;29.65;24.98;;;;;;;3.40;100.00;96305.56;5032877;28;20470;-64
2023/12/10 08:58:50;;;;;;;32.97;26.60;;;;;;;3.38;100.00;96310.00;5016618;28;20183;-64
2023/12/10 09:01:16;;;;;;;43.08;28.23;;;;;;;3.36;100.00;96311.84;5022344;28;20119;-64
2023/12/10 09:03:42;;;;;;;27.95;24.92;;;;;;;3.36;100.00;96304.06;5026073;28;20041;-64
2023/12/10 09:06:08;;;;;;;27.67;17.25;;;;;;;3.58;100.00;96301.09;5028103;28;20542;-64
2023/12/10 09:08:34;;;;;;;27.30;17.10;;;;;;;3.64;100.00;96299.94;5025786;28;20100;-64
2023/12/10 09:11:03;;;;;;;30.23;20.90;;;;;;;3.68;100.00;96299.69;5016059;28;20056;-64
2023/12/10 09:13:30;;;;;;;19.45;8.40;;;;;;;3.63;100.00;96298.25;5029840;28;20029;-64
2023/12/10 09:15:55;;;;;;;18.45;13.90;;;;;;;3.63;100.00;96293.06;5029500;28;20014;-64
2023/12/10 09:18:20;;;;;;;23.10;17.92;;;;;;;3.58;100.00;96294.16;5023514;28;20531;-64
2023/12/10 09:20:46;;;;;;;24.98;18.80;;;;;;;3.52;100.00;96302.28;5019936;28;20022;-64
2023/12/10 09:23:11;;;;;;;31.13;22.48;;;;;;;3.52;100.00;96306.66;5031183;28;20040;-64
2023/12/10 09:25:37;;;;;;;41.33;29.45;;;;;;;3.53;100.00;96308.34;5022907;28;20032;-64
2023/12/10 09:28:02;;;;;;;35.25;25.95;;;;;;;3.69;100.00;96306.59;5018620;28;20635;-64
2023/12/10 09:30:27;;;;;;;37.25;26.05;;;;;;;4.12;100.00;96310.31;5014514;28;20467;-64
2023/12/10 09:32:53;;;;;;;37.40;24.30;;;;;;;4.59;100.00;96305.91;5018050;28;20027;-64
2023/12/10 09:35:18;;;;;;;34.55;26.10;;;;;;;4.98;100.00;96309.69;5021052;28;20023;-64
2023/12/10 09:37:43;;;;;;;47.13;29.05;;;;;;;5.39;100.00;96308.09;5021503;28;20033;-64
2023/12/10 09:40:09;;;;;;;28.75;23.23;;;;;;;5.71;100.00;96313.09;5014392;28;20026;-64
2023/12/10 09:42:35;;;;;;;22.50;16.15;;;;;;;6.00;100.00;96325.25;5027187;28;20045;-65
2023/12/10 09:45:00;;;;;;;15.18;11.00;;;;;;;6.25;100.00;96337.59;5025837;28;20049;-65
2023/12/10 09:47:28;;;;;;;17.25;11.77;;;;;;;6.43;100.00;96350.44;5016080;28;20021;-65
2023/12/10 09:49:54;;;;;;;12.43;6.82;;;;;;;6.49;100.00;96364.88;5014235;28;20411;-65
2023/12/10 09:52:19;;;;;;;17.90;13.40;;;;;;;6.53;100.00;96382.91;5015656;28;20672;-65
2023/12/10 09:54:45;;;;;;;14.35;6.20;;;;;;;6.60;100.00;96409.50;5026745;28;20015;-65
2023/12/10 09:57:13;;;;;;;13.82;7.13;;;;;;;6.46;100.00;96439.16;5013826;28;20498;-64
2023/12/10 09:59:39;;;;;;;9.07;5.38;;;;;;;6.33;100.00;96456.59;5015277;28;20090;-64
2023/12/10 10:02:06;;;;;;;11.43;5.07;;;;;;;6.15;100.00;96475.09;5026936;28;20540;-64
2023/12/10 10:04:32;;;;;;;6.90;3.47;;;;;;;5.97;100.00;96496.19;5025181;28;20052;-64
2023/12/10 10:06:57;;;;;;;13.13;8.00;;;;;;;5.93;100.00;96494.69;5024876;28;20437;-65
2023/12/10 10:09:23;;;;;;;12.27;5.70;;;;;;;5.95;100.00;96507.66;5015381;28;20386;-64
2023/12/10 10:11:50;;;;;;;10.38;4.40;;;;;;;6.18;100.00;96513.28;5014590;28;20591;-64
2023/12/10 10:14:17;;;;;;;11.10;3.28;;;;;;;6.46;100.00;96509.78;5028305;28;20041;-64
2023/12/10 10:16:49;;;;;;;10.05;4.15;;;;;;;6.80;100.00;96515.50;5032296;28;20033;-64
2023/12/10 10:19:15;;;;;;;7.07;3.45;;;;;;;7.00;100.00;96513.41;5029781;28;20041;-64
2023/12/10 10:21:44;;;;;;;9.30;3.38;;;;;;;7.27;100.00;96520.38;5021326;28;20056;-64
2023/12/10 10:24:10;;;;;;;79.20;43.60;;;;;;;7.45;100.00;96506.06;5022312;28;20026;-64
2023/12/10 10:26:36;;;;;;;34.25;21.35;;;;;;;7.55;100.00;96521.16;5028763;28;20075;-64
2023/12/10 10:29:06;;;;;;;32.13;25.70;;;;;;;7.76;100.00;96518.88;5033085;28;20068;-65
2023/12/10 10:31:32;;;;;;;15.60;7.88;;;;;;;7.94;100.00;96511.53;5031710;28;20375;-64
2023/12/10 10:34:02;;;;;;;13.68;6.97;;;;;;;8.06;100.00;96504.63;5022173;28;20045;-65
2023/12/10 10:36:28;;;;;;;11.65;4.45;;;;;;;8.14;100.00;96502.28;5017736;28;20033;-64
2023/12/10 10:38:54;;;;;;;12.77;5.90;;;;;;;8.21;100.00;96502.69;5014847;28;20494;-65
2023/12/10 10:41:19;;;;;;;10.10;4.70;;;;;;;8.27;100.00;96511.94;5020616;28;20056;-65
2023/12/10 10:43:44;;;;;;;8.85;4.45;;;;;;;8.27;100.00;96518.00;5027290;28;20022;-63
2023/12/10 10:46:11;;;;;;;7.68;4.60;;;;;;;8.33;100.00;96516.75;5033482;28;20104;-63
2023/12/10 10:48:39;;;;;;;12.00;6.65;;;;;;;8.29;100.00;96518.75;5029969;28;20083;-63
2023/12/10 10:51:06;;;;;;;9.07;4.85;;;;;;;8.46;100.00;96522.81;5029233;28;20434;-63
2023/12/10 10:53:34;;;;;;;7.88;4.93;;;;;;;8.55;100.00;96497.75;5023784;28;20100;-63
2023/12/10 10:56:00;;;;;;;14.07;5.43;;;;;;;8.59;100.00;96496.56;5021622;28;20030;-64
2023/12/10 10:58:28;;;;;;;10.95;4.50;;;;;;;8.64;100.00;96477.03;5018791;28;20117;-63
2023/12/10 11:00:56;;;;;;;11.23;4.43;;;;;;;8.62;100.00;96476.28;5020601;28;20026;-63
2023/12/10 11:03:26;;;;;;;10.45;4.50;;;;;;;8.75;100.00;96474.47;5030249;28;20029;-63
2023/12/10 11:05:55;;;;;;;10.00;4.78;;;;;;;8.91;100.00;96478.59;5025639;28;20056;-64
2023/12/10 11:08:20;;;;;;;13.55;5.53;;;;;;;8.91;100.00;96463.69;5030156;28;20155;-64
2023/12/10 11:10:55;;;;;;;9.57;4.25;;;;;;;8.98;100.00;96456.19;5034580;28;20037;-63
2023/12/10 11:13:44;;;;;;;8.20;4.17;;;;;;;9.06;100.00;96445.09;5018385;28;20438;-63
2023/12/10 11:16:09;;;;;;;11.60;4.38;;;;;;;9.12;100.00;96445.47;5025330;28;20028;-64
2023/12/10 11:18:51;;;;;;;8.52;3.88;;;;;;;9.05;100.00;96425.88;5032454;28;20735;-64